Terminal Aerodrome Forecast
Issued by NWS Pittsburgh, PA

Home | Current Version | Previous Version | Text Only | Print | Product List | Glossary On
Versions: 1 2 3 4 5 6 7 8 9 10 11 12 13 14 15 16 17 18 19 20 21 22 23 24 25 26
000
FTUS41 KPBZ 211700
TAFPIT
TAF
KPIT 211724Z 2118/2224 00000KT P6SM OVC025
      TEMPO 2119/2121 SCT025
     FM212100 00000KT P6SM SCT025 SCT250
     FM221500 12005KT P6SM BKN040 BKN200=

USA.gov is the U.S. government's official web portal to all federal, state and local government web resources and services.